Relevés horaires Semmerzake (Belgique)


Relevés horaires à Semmerzake - Mardi 23 Mars 2021
Heure UTC1 Température [°C] Vent [km/h] Hum. [%] Pres.4 [hPa] Visi. [Km] Nébu. [octa] Préc.5 [mm] Cond.
2m. Res. Ros. Dir.2 Vit. Moy. Raf.3
23:00 5.9 4.9 2.9 S 5.6 -- 7.4 81 1024(-0.3/3h) 6 -- -- --
22:00 6.2 5.2 3.0 S 5.6 -- 7.4 80 1024.4(0.1/3h) 6 -- -- --
21:00 6.8 6.8 3.3 S 3.7 -- 7.4 78 1024.5(0.2/3h) 8 -- -- --
20:00 7.7 6.9 3.8 S 5.6 -- 7.4 76 1024.5(0.2/3h) 8 -- -- --
19:00 8.6 8 4.0 S 5.6 -- 7.4 73 1024.5(-0.1/3h) 10 -- -- --
18:00 10.2 10.2 4.1 NNO 1.9 -- 13.0 66 1024.2(-0.6/3h) 13 -- -- --
17:00 11.8 11.8 4.3 NNO 1.9 -- 9.3 60 1024(-1.2/3h) 14 -- -- --
16:00 11.9 11.8 4.2 OSO 5.6 -- 11.1 59 1024.2(-1.7/3h) 15 -- -- --
15:00 11.6 11.4 4.0 SO 5.6 -- 13.0 60 1024.9(-1.5/3h) 14 -- -- --
14:00 11.6 11.4 4.1 O 5.6 -- 11.1 60 1025.4(-1.2/3h) 13 -- -- --
13:00 10.5 10.2 3.5 O 5.6 -- 13.0 62 1026(-0.7/3h) 15 -- -- --
12:00 10.9 10.6 4.3 OSO 5.6 -- 13.0 64 1026.5(-0.1/3h) 19 -- -- --
11:00 10.1 9.3 3.7 OSO 7.4 -- 13.0 64 1026.7(0.1/3h) 15 -- -- --
10:00 9.6 9.1 3.0 SO 5.6 -- 13.0 63 1026.9(0.5/3h) 16 -- -- --
09:00 7.9 7.2 3.4 SO 5.6 -- 9.3 73 1026.7(0.5/3h) 13 -- -- --
08:00 5.8 4.8 3.1 SSO 5.6 -- 9.3 83 1026.5(0.5/3h) 8 -- -- --
07:00 3.9 2.6 1.9 SSO 5.6 -- 7.4 87 1026.5(0.4/3h) 8 -- -- --
06:00 2.8 1.3 1.4 SSO 5.6 -- 9.3 90 1026.2(0.0/3h) 6 -- -- --
05:00 3.0 1.6 1.7 SSO 5.6 -- 7.4 91 1026(-0.3/3h) 7 -- -- --
04:00 3.0 3.0 1.7 SSO 3.7 -- 7.4 91 1026(-0.5/3h) 6 -- -- --
03:00 3.0 3.0 1.5 SSO 3.7 -- 9.3 90 1026.2(-0.2/3h) 7 -- -- --
02:00 3.5 2.1 1.7 SSO 5.6 -- 7.4 88 1026.4(-0.2/3h) 7 -- -- --
01:00 3.8 3.8 1.5 SSO 3.7 -- 9.3 85 1026.5(0.0/3h) 10 -- -- --
00:00 4.1 2.8 1.6 S 5.6 -- 7.4 84 1026.5(-0.2/3h) 10 -- -- --

1 Coordinated Universal Time. Actuellement il est 13:00 locale et 12:00 UTC.

2 Le vent souffle depuis la direction indiquée vers la direction oposée.

3 Les rafales max. sont disponible 40 min après l'heure du relevé.

4 Pour les stations d'altitude (plus de 600m) le géopotentiel du niveau le plus proche de la pression obligatoire est indiqué.

5 Les stations disposant d'un diffuseur peuvent indiquer "trace". Cela signifie que des précipitations ont touchés le sol mais que la quantité est inférieure à 0.1 mm.

Récapitulatif de la journée
Température [°C] Vent [km/h] Ensoleillement4 [h] Precipitations totale5 [mm] Pression [Hpa]
Min1 Max.2 Moy.3 Max. Min Max.
2.7 12.1 0 13.0 0 h 0 min 0 1024.0 1026.9

1 Température minimale relevée entre 18:00 UTC la veille et 18:00 UTC le jour donné.

2 Température maximale relevée entre 06:00 UTC le jour donné et 06:00 UTC le lendemain.

3 Vent moyen de la journée basé sur les relevés horaires.

4 Ensoleillement en heures relevé entre 06:00 UTC la veille et 06:00 UTC le jour donné.

5 Précipitations totales tombées entre 06:00 UTC la jour donné et 06:00 UTC le lendemain.

Graphiques horaires